Time;durP1;ratioP1;P1;durP2;ratioP2;P2;SDS_P1;SDS_P2;PMS_P1;PMS_P2;Temp;Humidity;BMP_temperature;BMP_pressure;BME280_temperature;BME280_humidity;BME280_pressure;Samples;Min_cycle;Max_cycle;Signal;HPM_P1;HPM_P2
2024/01/05 00:02:23;;;;;;;68.07;32.03;;;;;;;;;;6224467;28;20053;-80
2024/01/05 00:05:25;;;;;;;36.22;21.02;;;;;;;;;;6228482;28;20360;-79
2024/01/05 00:08:27;;;;;;;51.72;25.20;;;;;;;;;;6228357;28;20083;-79
2024/01/05 00:11:31;;;;;;;70.25;32.70;;;;;;;;;;6225289;28;20348;-79
2024/01/05 00:14:37;;;;;;;98.80;43.25;;;;;;;;;;6226696;28;20064;-79
2024/01/05 00:17:39;;;;;;;62.88;30.70;;;;;;;;;;6244762;28;20083;-80
2024/01/05 00:20:41;;;;;;;84.90;37.45;;;;;;;;;;6232963;28;20064;-79
2024/01/05 00:23:42;;;;;;;51.50;25.45;;;;;;;;;;6226626;28;20064;-75
2024/01/05 00:26:44;;;;;;;35.20;19.63;;;;;;;;;;6228917;28;20061;-75
2024/01/05 00:29:48;;;;;;;31.83;18.83;;;;;;;;;;6227397;28;20061;-74
2024/01/05 00:32:50;;;;;;;31.95;18.95;;;;;;;;;;6226241;28;20294;-74
2024/01/05 00:35:52;;;;;;;33.22;19.20;;;;;;;;;;6226997;28;20054;-75
2024/01/05 00:38:55;;;;;;;32.40;18.60;;;;;;;;;;6225579;28;20038;-75
2024/01/05 00:41:57;;;;;;;33.45;19.88;;;;;;;;;;6227384;28;20071;-75
2024/01/05 00:45:00;;;;;;;36.45;20.23;;;;;;;;;;6227281;28;20046;-75
2024/01/05 00:48:02;;;;;;;34.33;18.75;;;;;;;;;;6226409;28;20050;-76
2024/01/05 00:51:04;;;;;;;38.55;19.90;;;;;;;;;;6226989;28;20053;-75
2024/01/05 00:54:06;;;;;;;37.17;20.77;;;;;;;;;;6225534;28;20066;-76
2024/01/05 00:57:09;;;;;;;34.70;19.63;;;;;;;;;;6228157;28;20061;-75
2024/01/05 01:00:13;;;;;;;36.78;20.08;;;;;;;;;;6226944;28;20053;-75
2024/01/05 01:03:15;;;;;;;37.72;20.45;;;;;;;;;;6224757;28;20066;-75
2024/01/05 01:06:17;;;;;;;36.40;19.98;;;;;;;;;;6226391;28;20060;-75
2024/01/05 01:09:19;;;;;;;36.13;19.33;;;;;;;;;;6224770;28;20046;-75
2024/01/05 01:12:21;;;;;;;33.63;19.20;;;;;;;;;;6226247;28;20061;-75
2024/01/05 01:15:24;;;;;;;36.60;19.35;;;;;;;;;;6221765;28;20370;-75
2024/01/05 01:18:27;;;;;;;35.90;19.85;;;;;;;;;;6225404;28;20054;-75
2024/01/05 01:21:29;;;;;;;35.42;18.17;;;;;;;;;;6226322;28;20304;-75
2024/01/05 01:24:31;;;;;;;32.97;18.77;;;;;;;;;;6230598;28;20068;-75
2024/01/05 01:27:34;;;;;;;33.75;18.70;;;;;;;;;;6229647;28;20049;-74
2024/01/05 01:30:37;;;;;;;33.60;18.40;;;;;;;;;;6229676;28;20096;-74
2024/01/05 01:33:40;;;;;;;39.63;19.70;;;;;;;;;;6230214;28;20053;-73
2024/01/05 01:36:42;;;;;;;37.00;18.88;;;;;;;;;;6230677;28;20393;-74
2024/01/05 01:39:44;;;;;;;35.38;19.52;;;;;;;;;;6228713;28;20041;-74
2024/01/05 01:42:45;;;;;;;;;;;;;;;;;;6229755;28;20130;-74
2024/01/05 01:45:51;;;;;;;;;;;;;;;;;;6231882;28;19972;-74
2024/01/05 01:48:55;;;;;;;;;;;;;;;;;;6232029;28;19992;-74
2024/01/05 01:51:57;;;;;;;;;;;;;;;;;;6252790;28;19928;-74
2024/01/05 01:54:58;;;;;;;;;;;;;;;;;;6256313;28;19944;-73
2024/01/05 01:58:01;;;;;;;;;;;;;;;;;;6231446;28;19932;-74
2024/01/05 02:01:04;;;;;;;;;;;;;;;;;;6232926;28;19940;-75
2024/01/05 02:04:06;;;;;;;;;;;;;;;;;;6229380;28;20220;-74
2024/01/05 02:07:08;;;;;;;;;;;;;;;;;;6230916;28;19926;-74
2024/01/05 02:10:09;;;;;;;;;;;;;;;;;;6244502;28;19960;-73
2024/01/05 02:13:11;;;;;;;;;;;;;;;;;;6260201;28;19930;-74
2024/01/05 02:16:14;;;;;;;;;;;;;;;;;;6231996;28;19964;-74
2024/01/05 02:19:16;;;;;;;;;;;;;;;;;;6229920;28;19941;-74
2024/01/05 02:22:17;;;;;;;;;;;;;;;;;;6229463;28;19996;-75
2024/01/05 02:25:20;;;;;;;;;;;;;;;;;;6231197;28;19988;-75
2024/01/05 02:28:22;;;;;;;;;;;;;;;;;;6228655;28;19925;-75
2024/01/05 02:31:23;;;;;;;;;;;;;;;;;;6230530;28;19944;-74
2024/01/05 02:34:25;;;;;;;;;;;;;;;;;;6227069;28;19925;-74
2024/01/05 02:37:29;;;;;;;;;;;;;;;;;;6229031;28;19952;-74
2024/01/05 02:40:32;;;;;;;;;;;;;;;;;;6228071;28;19925;-75
2024/01/05 02:43:34;;;;;;;;;;;;;;;;;;6229565;28;19926;-74
2024/01/05 02:46:37;;;;;;;;;;;;;;;;;;6229988;28;20128;-74
2024/01/05 02:49:38;;;;;;;;;;;;;;;;;;6231206;28;19917;-73
2024/01/05 02:52:40;;;;;;;;;;;;;;;;;;6228537;28;19983;-74
2024/01/05 02:55:43;;;;;;;;;;;;;;;;;;6260115;28;20390;-73
2024/01/05 02:58:45;;;;;;;;;;;;;;;;;;6229117;28;19933;-75
2024/01/05 03:01:48;;;;;;;;;;;;;;;;;;6229303;28;20207;-75
2024/01/05 03:04:51;;;;;;;;;;;;;;;;;;6229016;28;20035;-75
2024/01/05 03:07:53;;;;;;;;;;;;;;;;;;6228047;28;19939;-75
2024/01/05 03:10:56;;;;;;;;;;;;;;;;;;6228313;28;19926;-75
2024/01/05 03:13:58;;;;;;;;;;;;;;;;;;6227832;28;19956;-74
2024/01/05 03:16:59;;;;;;;;;;;;;;;;;;6229594;28;19948;-75
2024/01/05 03:20:02;;;;;;;;;;;;;;;;;;6229182;28;19917;-75
2024/01/05 03:23:04;;;;;;;;;;;;;;;;;;6256995;28;19924;-75
2024/01/05 03:26:09;;;;;;;;;;;;;;;;;;6212177;28;19937;-76
2024/01/05 03:29:11;;;;;;;;;;;;;;;;;;6228918;28;19925;-76
2024/01/05 03:32:13;;;;;;;;;;;;;;;;;;6258930;28;20307;-75
2024/01/05 03:35:15;;;;;;;;;;;;;;;;;;6230232;28;19992;-76
2024/01/05 03:38:18;;;;;;;;;;;;;;;;;;6230225;28;19932;-75
2024/01/05 03:41:21;;;;;;;;;;;;;;;;;;6227522;28;20148;-76
2024/01/05 03:44:22;;;;;;;;;;;;;;;;;;6229806;28;20135;-76
2024/01/05 03:47:24;;;;;;;;;;;;;;;;;;6226564;28;19925;-75
2024/01/05 03:50:26;;;;;;;;;;;;;;;;;;6228955;28;20154;-75
2024/01/05 03:53:28;;;;;;;;;;;;;;;;;;6240491;28;19933;-78
2024/01/05 03:56:31;;;;;;;;;;;;;;;;;;6252949;28;19928;-79
2024/01/05 03:59:32;;;;;;;;;;;;;;;;;;6240092;28;20275;-78
2024/01/05 04:02:34;;;;;;;;;;;;;;;;;;6227456;28;19921;-78
2024/01/05 04:05:36;;;;;;;;;;;;;;;;;;6259526;28;20167;-79
2024/01/05 04:08:39;;;;;;;;;;;;;;;;;;6228526;28;19995;-78
2024/01/05 04:11:42;;;;;;;;;;;;;;;;;;6227737;28;19929;-78
2024/01/05 04:14:44;;;;;;;;;;;;;;;;;;6228073;28;20215;-79
2024/01/05 04:17:45;;;;;;;;;;;;;;;;;;6227416;28;19925;-79
2024/01/05 04:20:47;;;;;;;;;;;;;;;;;;6227876;28;19933;-78
2024/01/05 04:23:49;;;;;;;;;;;;;;;;;;6225874;28;19940;-78
2024/01/05 04:26:52;;;;;;;;;;;;;;;;;;6227895;28;20210;-77
2024/01/05 04:29:55;;;;;;;;;;;;;;;;;;6228788;28;19917;-78
2024/01/05 04:32:57;;;;;;;;;;;;;;;;;;6227727;28;20121;-78
2024/01/05 04:35:58;;;;;;;;;;;;;;;;;;6243819;28;19940;-77
2024/01/05 04:39:01;;;;;;;;;;;;;;;;;;6252127;28;19971;-78
2024/01/05 04:42:04;;;;;;;;;;;;;;;;;;6233761;28;19931;-77
2024/01/05 04:45:07;;;;;;;;;;;;;;;;;;6225204;28;19984;-77
2024/01/05 04:48:08;;;;;;;;;;;;;;;;;;6227971;28;20441;-78
2024/01/05 04:51:10;;;;;;;;;;;;;;;;;;6226966;28;19988;-78
2024/01/05 04:54:12;;;;;;;;;;;;;;;;;;6227695;28;19989;-78
2024/01/05 04:57:15;;;;;;;;;;;;;;;;;;6229428;28;19925;-77
2024/01/05 05:00:17;;;;;;;;;;;;;;;;;;6231216;28;20498;-77
2024/01/05 05:03:19;;;;;;;;;;;;;;;;;;6232610;28;19925;-74
2024/01/05 05:06:21;;;;;;;;;;;;;;;;;;6230889;28;19925;-75
2024/01/05 05:09:22;;;;;;;;;;;;;;;;;;6230855;28;20151;-74
2024/01/05 05:12:25;;;;;;;;;;;;;;;;;;6233548;28;19926;-74
2024/01/05 05:15:27;;;;;;;;;;;;;;;;;;6230537;28;19968;-74
2024/01/05 05:18:29;;;;;;;;;;;;;;;;;;6233640;28;19976;-74
2024/01/05 05:21:30;;;;;;;;;;;;;;;;;;6233060;28;19935;-75
2024/01/05 05:24:32;;;;;;;;;;;;;;;;;;6228297;28;19925;-75
2024/01/05 05:27:35;;;;;;;;;;;;;;;;;;6230840;28;20120;-74
2024/01/05 05:30:37;;;;;;;;;;;;;;;;;;6229666;28;19918;-74
2024/01/05 05:33:38;;;;;;;;;;;;;;;;;;6231957;28;19925;-75
2024/01/05 05:36:40;;;;;;;;;;;;;;;;;;6232819;28;19932;-74
2024/01/05 05:39:42;;;;;;;;;;;;;;;;;;6229496;28;19932;-74
2024/01/05 05:42:45;;;;;;;;;;;;;;;;;;6231070;28;20175;-74
2024/01/05 05:45:46;;;;;;;;;;;;;;;;;;6230609;28;20460;-75
2024/01/05 05:48:48;;;;;;;;;;;;;;;;;;6230781;28;20216;-74
2024/01/05 05:51:49;;;;;;;;;;;;;;;;;;6263788;28;19944;-75
2024/01/05 05:54:51;;;;;;;;;;;;;;;;;;6232076;28;19925;-74
2024/01/05 05:57:55;;;;;;;;;;;;;;;;;;6229037;28;19917;-74
2024/01/05 06:00:57;;;;;;;;;;;;;;;;;;6255772;28;19979;-74
2024/01/05 06:03:59;;;;;;;;;;;;;;;;;;6256108;28;19929;-75
2024/01/05 06:07:00;;;;;;;;;;;;;;;;;;6286398;28;19931;-74
2024/01/05 06:10:02;;;;;;;;;;;;;;;;;;6252006;28;19936;-73
2024/01/05 06:13:05;;;;;;;;;;;;;;;;;;6254985;28;19925;-75
2024/01/05 06:16:07;;;;;;;;;;;;;;;;;;6255523;28;19929;-74
2024/01/05 06:19:09;;;;;;;;;;;;;;;;;;6256150;28;20124;-74
2024/01/05 06:22:10;;;;;;;;;;;;;;;;;;6255476;28;19925;-74
2024/01/05 06:25:12;;;;;;;;;;;;;;;;;;6254759;28;19940;-74
2024/01/05 06:28:15;;;;;;;;;;;;;;;;;;6254617;28;19971;-74
2024/01/05 06:31:17;;;;;;;;;;;;;;;;;;6257064;28;20004;-74
2024/01/05 06:34:21;;;;;;;;;;;;;;;;;;6268370;28;20010;-74
2024/01/05 06:37:23;;;;;;;;;;;;;;;;;;6256399;28;19933;-75
2024/01/05 06:40:24;;;;;;;;;;;;;;;;;;6287176;28;19924;-74
2024/01/05 06:43:27;;;;;;;;;;;;;;;;;;6256450;28;19917;-73
2024/01/05 06:46:30;;;;;;;;;;;;;;;;;;6254394;28;19929;-74
2024/01/05 06:49:32;;;;;;;;;;;;;;;;;;6255006;28;19931;-74
2024/01/05 06:52:33;;;;;;;;;;;;;;;;;;6253441;28;19928;-74
2024/01/05 06:55:35;;;;;;;;;;;;;;;;;;6254018;28;19948;-74
2024/01/05 06:58:37;;;;;;;;;;;;;;;;;;6252101;28;19956;-74
2024/01/05 07:01:39;;;;;;;;;;;;;;;;;;6253854;28;19932;-75
2024/01/05 07:04:41;;;;;;;;;;;;;;;;;;6253362;28;19924;-74
2024/01/05 07:07:42;;;;;;;;;;;;;;;;;;6252054;28;19955;-74
2024/01/05 07:10:44;;;;;;;;;;;;;;;;;;6254713;28;19932;-74
2024/01/05 07:13:47;;;;;;;;;;;;;;;;;;6287538;28;19924;-75
2024/01/05 07:16:49;;;;;;;;;;;;;;;;;;6253879;28;19921;-75
2024/01/05 07:19:51;;;;;;;;;;;;;;;;;;6252445;28;20139;-75
2024/01/05 07:22:53;;;;;;;;;;;;;;;;;;6254808;28;19925;-75
2024/01/05 07:25:54;;;;;;;;;;;;;;;;;;6253181;28;19929;-75
2024/01/05 07:28:58;;;;;;;;;;;;;;;;;;6252261;28;19978;-74
2024/01/05 07:32:01;;;;;;;;;;;;;;;;;;6251781;28;19925;-74
2024/01/05 07:35:04;;;;;;;;;;;;;;;;;;6253854;28;19932;-75
2024/01/05 07:38:05;;;;;;;;;;;;;;;;;;6251452;28;20265;-75
2024/01/05 07:41:07;;;;;;;;;;;;;;;;;;6251617;28;19917;-72
2024/01/05 07:44:10;;;;;;;;;;;;;;;;;;6253433;28;19925;-74
2024/01/05 07:47:12;;;;;;;;;;;;;;;;;;6250037;28;19924;-74
2024/01/05 07:50:14;;;;;;;;;;;;;;;;;;6249697;28;20171;-75
2024/01/05 07:53:16;;;;;;;;;;;;;;;;;;6251677;28;19924;-74
2024/01/05 07:56:18;;;;;;;;;;;;;;;;;;6252461;28;19944;-74
2024/01/05 07:59:21;;;;;;;;;;;;;;;;;;6252953;28;20085;-76
2024/01/05 08:02:22;;;;;;;;;;;;;;;;;;6251120;28;19924;-74
2024/01/05 08:05:24;;;;;;;;;;;;;;;;;;6253114;28;19936;-73
2024/01/05 08:08:26;;;;;;;;;;;;;;;;;;6252760;28;19928;-74
2024/01/05 08:11:28;;;;;;;;;;;;;;;;;;6252013;28;20014;-73
2024/01/05 08:14:31;;;;;;;;;;;;;;;;;;6253192;28;19932;-74
2024/01/05 08:17:32;;;;;;;;;;;;;;;;;;6252526;28;19931;-72
2024/01/05 08:20:34;;;;;;;;;;;;;;;;;;6253305;28;20119;-73
2024/01/05 08:23:36;;;;;;;;;;;;;;;;;;6253336;28;19955;-72
2024/01/05 08:26:38;;;;;;;;;;;;;;;;;;6251143;28;19956;-73
2024/01/05 08:29:41;;;;;;;;;;;;;;;;;;6251942;28;19925;-72
2024/01/05 08:32:43;;;;;;;;;;;;;;;;;;6249759;28;19925;-73
2024/01/05 08:35:44;;;;;;;;;;;;;;;;;;6252262;28;19929;-73
2024/01/05 08:38:46;;;;;;;;;;;;;;;;;;6253590;28;19929;-71
2024/01/05 08:41:48;;;;;;;;;;;;;;;;;;6251559;28;19959;-73
2024/01/05 08:44:51;;;;;;;;;;;;;;;;;;6250569;28;19948;-72
2024/01/05 08:47:53;;;;;;;;;;;;;;;;;;6281774;28;19925;-73
2024/01/05 08:50:55;;;;;;;;;;;;;;;;;;6252223;28;19983;-73
2024/01/05 08:53:58;;;;;;;;;;;;;;;;;;6250737;28;19943;-75
2024/01/05 08:56:59;;;;;;;;;;;;;;;;;;6253027;28;20215;-75
2024/01/05 09:00:03;;;;;;;;;;;;;;;;;;6251542;28;19971;-76
2024/01/05 09:03:05;;;;;;;;;;;;;;;;;;6249961;28;19932;-74
2024/01/05 09:06:07;;;;;;;;;;;;;;;;;;6250949;28;19947;-74
2024/01/05 09:09:10;;;;;;;;;;;;;;;;;;6252108;28;19980;-73
2024/01/05 09:12:12;;;;;;;;;;;;;;;;;;6252435;28;19963;-75
2024/01/05 09:15:17;;;;;;;;;;;;;;;;;;6283113;28;19929;-74
2024/01/05 09:18:19;;;;;;;;;;;;;;;;;;6252238;28;20026;-74
2024/01/05 09:21:21;;;;;;;;;;;;;;;;;;6252743;28;20116;-74
2024/01/05 09:24:23;;;;;;;;;;;;;;;;;;6253367;28;19932;-75
2024/01/05 09:27:25;;;;;;;;;;;;;;;;;;6251304;28;19925;-74
2024/01/05 09:30:28;;;;;;;;;;;;;;;;;;6252065;28;20031;-75
2024/01/05 09:33:30;;;;;;;;;;;;;;;;;;6252456;28;19932;-75
2024/01/05 09:36:33;;;;;;;;;;;;;;;;;;6251763;28;19929;-75
2024/01/05 09:39:34;;;;;;;;;;;;;;;;;;6251857;28;19929;-74
2024/01/05 09:42:35;;;;;;;;;;;;;;;;;;6250444;28;19924;-75
2024/01/05 09:45:38;;;;;;;;;;;;;;;;;;6255787;28;20269;-76
2024/01/05 09:48:40;;;;;;;;;;;;;;;;;;6257503;28;20234;-75
2024/01/05 09:51:42;;;;;;;;;;;;;;;;;;6255170;28;19925;-75
2024/01/05 09:54:46;;;;;;;;;;;;;;;;;;6257216;28;19925;-75
2024/01/05 09:57:47;;;;;;;;;;;;;;;;;;6254630;28;19917;-74
2024/01/05 10:00:51;;;;;;;;;;;;;;;;;;6258012;28;20242;-75
2024/01/05 10:03:55;;;;;;;;;;;;;;;;;;6254339;28;20254;-75
2024/01/05 10:07:00;;;;;;;;;;;;;;;;;;6229738;28;19929;-74
2024/01/05 10:10:02;;;;;;;;;;;;;;;;;;6226541;28;19925;-74
2024/01/05 10:13:06;;;;;;;;;;;;;;;;;;6231776;28;19917;-73
2024/01/05 10:16:10;;;;;;;;;;;;;;;;;;6229766;28;20140;-75
2024/01/05 10:19:12;;;;;;;;;;;;;;;;;;6266003;28;19987;-74
2024/01/05 10:22:15;;;;;;;;;;;;;;;;;;6254704;28;19925;-74
2024/01/05 10:25:17;;;;;;;;;;;;;;;;;;6253410;28;20224;-74
2024/01/05 10:28:23;;;;;;;;;;;;;;;;;;6253818;28;19947;-75
2024/01/05 10:31:26;;;;;;;;;;;;;;;;;;6256175;28;19917;-75
2024/01/05 10:34:34;;;;;;;;;;;;;;;;;;6256436;28;19935;-75
2024/01/05 10:37:36;;;;;;;;;;;;;;;;;;6253940;28;19925;-74
2024/01/05 10:40:38;;;;;;;;;;;;;;;;;;6255716;28;19925;-74
2024/01/05 10:43:41;;;;;;;;;;;;;;;;;;6256684;28;19992;-74
2024/01/05 10:46:44;;;;;;;;;;;;;;;;;;6255529;28;19924;-75
2024/01/05 10:49:48;;;;;;;;;;;;;;;;;;6254737;28;20219;-74
2024/01/05 10:52:50;;;;;;;;;;;;;;;;;;6254898;28;19936;-74
2024/01/05 10:55:52;;;;;;;;;;;;;;;;;;6253532;28;19932;-75
2024/01/05 10:58:54;;;;;;;;;;;;;;;;;;6256099;28;20166;-74
2024/01/05 11:01:57;;;;;;;;;;;;;;;;;;6256165;28;19960;-75
2024/01/05 11:05:01;;;;;;;;;;;;;;;;;;6252524;28;19925;-74
2024/01/05 11:08:03;;;;;;;;;;;;;;;;;;6255491;28;19924;-72
2024/01/05 11:11:07;;;;;;;;;;;;;;;;;;6251367;28;19992;-75
2024/01/05 11:14:16;;;;;;;;;;;;;;;;;;6255633;28;20004;-75
2024/01/05 11:17:36;;;;;;;;;;;;;;;;;;6255984;28;20223;-74
2024/01/05 11:20:49;;;;;;;;;;;;;;;;;;6254136;28;20264;-74
2024/01/05 11:23:53;;;;;;;;;;;;;;;;;;6254057;28;20301;-74
2024/01/05 11:26:55;;;;;;;;;;;;;;;;;;6255957;28;19932;-74
2024/01/05 11:29:57;;;;;;;;;;;;;;;;;;6255374;28;19940;-75
2024/01/05 11:32:59;;;;;;;;;;;;;;;;;;6254752;28;20100;-74
2024/01/05 11:36:02;;;;;;;;;;;;;;;;;;6255937;28;19925;-73
2024/01/05 11:39:06;;;;;;;;;;;;;;;;;;6252807;28;20171;-73
2024/01/05 11:42:08;;;;;;;;;;;;;;;;;;6252833;28;20004;-74
2024/01/05 11:45:11;;;;;;;;;;;;;;;;;;6254067;28;19972;-74
2024/01/05 11:48:15;;;;;;;;;;;;;;;;;;6255082;28;20175;-75
2024/01/05 11:51:19;;;;;;;;;;;;;;;;;;6253076;28;19924;-74
2024/01/05 11:54:21;;;;;;;;;;;;;;;;;;6254430;28;19924;-74
2024/01/05 11:57:23;;;;;;;;;;;;;;;;;;6253823;28;19925;-74
2024/01/05 12:00:25;;;;;;;;;;;;;;;;;;6253145;28;20096;-72
2024/01/05 12:03:27;;;;;;;;;;;;;;;;;;6253671;28;19933;-74
2024/01/05 12:06:30;;;;;;;;;;;;;;;;;;6253421;28;19925;-73
2024/01/05 12:09:31;;;;;;;;;;;;;;;;;;6251915;28;19964;-73
2024/01/05 12:12:33;;;;;;;;;;;;;;;;;;6253999;28;19931;-74
2024/01/05 12:15:35;;;;;;;;;;;;;;;;;;6251335;28;20192;-73
2024/01/05 12:18:42;;;;;;;;;;;;;;;;;;6253249;28;20246;-74
2024/01/05 12:21:46;;;;;;;;;;;;;;;;;;6253527;28;19936;-74
2024/01/05 12:24:47;;;;;;;;;;;;;;;;;;6252913;28;19932;-73
2024/01/05 12:27:49;;;;;;;;;;;;;;;;;;6253645;28;20112;-74
2024/01/05 12:30:51;;;;;;;;;;;;;;;;;;6252006;28;19995;-74
2024/01/05 12:33:52;;;;;;;;;;;;;;;;;;6251825;28;20047;-73
2024/01/05 12:36:56;;;;;;;;;;;;;;;;;;6252405;28;20215;-73
2024/01/05 12:40:08;;;;;;;;;;;;;;;;;;6253772;28;19939;-74
2024/01/05 12:43:12;;;;;;;;;;;;;;;;;;6228011;28;19991;-73
2024/01/05 12:46:13;;;;;;;;;;;;;;;;;;6225108;28;19964;-73
2024/01/05 12:49:22;;;;;;;;;;;;;;;;;;6223458;28;19932;-74
2024/01/05 12:52:34;;;;;;;;;;;;;;;;;;6225755;28;19925;-73
2024/01/05 12:55:37;;;;;;;;;;;;;;;;;;6227608;28;19925;-73
2024/01/05 12:58:39;;;;;;;;;;;;;;;;;;6258086;28;19984;-75
2024/01/05 13:01:41;;;;;;;;;;;;;;;;;;6227674;28;19968;-73
2024/01/05 13:04:42;;;;;;;;;;;;;;;;;;6236571;28;19916;-74
2024/01/05 13:07:46;;;;;;;;;;;;;;;;;;6271778;28;19932;-73
2024/01/05 13:10:48;;;;;;;;;;;;;;;;;;6251236;28;19936;-74
2024/01/05 13:13:49;;;;;;;;;;;;;;;;;;6251211;28;19936;-74
2024/01/05 13:16:51;;;;;;;;;;;;;;;;;;6252694;28;19971;-74
2024/01/05 13:19:53;;;;;;;;;;;;;;;;;;6254073;28;19925;-73
2024/01/05 13:22:56;;;;;;;;;;;;;;;;;;6247346;28;20130;-74
2024/01/05 13:25:58;;;;;;;;;;;;;;;;;;6233419;28;20143;-73
2024/01/05 13:28:59;;;;;;;;;;;;;;;;;;6232255;28;19917;-73
2024/01/05 13:32:01;;;;;;;;;;;;;;;;;;6230861;28;19925;-73
2024/01/05 13:35:03;;;;;;;;;;;;;;;;;;6232247;28;19968;-74
2024/01/05 13:38:06;;;;;;;;;;;;;;;;;;6231393;28;20178;-73
2024/01/05 13:41:07;;;;;;;;;;;;;;;;;;6232593;28;19924;-73
2024/01/05 13:44:09;;;;;;;;;;;;;;;;;;6264455;28;19925;-75
2024/01/05 13:47:10;;;;;;;;;;;;;;;;;;6232666;28;19968;-73
2024/01/05 13:50:12;;;;;;;;;;;;;;;;;;6231514;28;19925;-74
2024/01/05 13:53:15;;;;;;;;;;;;;;;;;;6232913;28;20226;-74
2024/01/05 13:56:16;;;;;;;;;;;;;;;;;;6231021;28;19926;-74
2024/01/05 13:59:18;;;;;;;;;;;;;;;;;;6216301;28;20215;-74
2024/01/05 14:02:20;;;;;;;;;;;;;;;;;;6232522;28;19932;-74
2024/01/05 14:05:22;;;;;;;;;;;;;;;;;;6265251;28;19949;-74
2024/01/05 14:08:25;;;;;;;;;;;;;;;;;;6232735;28;19925;-74
2024/01/05 14:11:26;;;;;;;;;;;;;;;;;;6232599;28;19932;-74
2024/01/05 14:14:30;;;;;;;;;;;;;;;;;;6231833;28;20246;-74
2024/01/05 14:17:32;;;;;;;;;;;;;;;;;;6263037;28;19917;-76
2024/01/05 14:20:34;;;;;;;;;;;;;;;;;;6232314;28;19925;-75
2024/01/05 14:23:38;;;;;;;;;;;;;;;;;;6231015;28;20064;-74
2024/01/05 14:26:39;;;;;;;;;;;;;;;;;;6233217;28;19925;-75
2024/01/05 14:29:42;;;;;;;;;;;;;;;;;;6262903;28;19933;-74
2024/01/05 14:32:43;;;;;;;;;;;;;;;;;;6230243;28;19992;-75
2024/01/05 14:35:46;;;;;;;;;;;;;;;;;;6231612;28;19948;-74
2024/01/05 14:38:49;;;;;;;;;;;;;;;;;;6232136;28;19988;-74
2024/01/05 14:41:51;;;;;;;;;;;;;;;;;;6231652;28;19925;-74
2024/01/05 14:44:53;;;;;;;;;;;;;;;;;;6232142;28;19932;-74
2024/01/05 14:47:56;;;;;;;;;;;;;;;;;;6230220;28;19967;-74
2024/01/05 14:50:57;;;;;;;;;;;;;;;;;;6229657;28;19931;-75
2024/01/05 14:54:01;;;;;;;;;;;;;;;;;;6229921;28;20191;-74
2024/01/05 14:57:02;;;;;;;;;;;;;;;;;;6231044;28;19964;-75
2024/01/05 15:00:05;;;;;;;;;;;;;;;;;;6229923;28;19955;-74
2024/01/05 15:03:07;;;;;;;;;;;;;;;;;;6229064;28;19925;-75
2024/01/05 15:06:09;;;;;;;;;;;;;;;;;;6228447;28;19925;-75
2024/01/05 15:09:12;;;;;;;;;;;;;;;;;;6263066;28;19917;-75
2024/01/05 15:12:14;;;;;;;;;;;;;;;;;;6227911;28;19925;-75
2024/01/05 15:15:16;;;;;;;;;;;;;;;;;;6230892;28;19953;-74
2024/01/05 15:18:19;;;;;;;;;;;;;;;;;;6228989;28;20222;-75
2024/01/05 15:21:24;;;;;;;;;;;;;;;;;;6229909;28;20011;-75
2024/01/05 15:24:27;;;;;;;;;;;;;;;;;;6228871;28;19925;-74
2024/01/05 15:27:29;;;;;;;;;;;;;;;;;;6229496;28;19926;-75
2024/01/05 15:30:30;;;;;;;;;;;;;;;;;;6229576;28;19936;-75
2024/01/05 15:33:32;;;;;;;;;;;;;;;;;;6230052;28;19918;-74
2024/01/05 15:36:33;;;;;;;;;;;;;;;;;;6230125;28;19932;-74
2024/01/05 15:39:37;;;;;;;;;;;;;;;;;;6228584;28;19964;-73
2024/01/05 15:42:39;;;;;;;;;;;;;;;;;;6229341;28;19952;-73
2024/01/05 15:45:40;;;;;;;;;;;;;;;;;;6230788;28;19957;-73
2024/01/05 15:48:42;;;;;;;;;;;;;;;;;;6228255;28;20220;-73
2024/01/05 15:51:47;;;;;;;;;;;;;;;;;;6228851;28;19925;-73
2024/01/05 15:54:50;;;;;;;;;;;;;;;;;;6229574;28;19921;-73
2024/01/05 15:57:52;;;;;;;;;;;;;;;;;;6229928;28;19933;-73
2024/01/05 16:00:54;;;;;;;;;;;;;;;;;;6227913;28;19968;-73
2024/01/05 16:03:55;;;;;;;;;;;;;;;;;;6285743;28;19971;-72
2024/01/05 16:06:57;;;;;;;;;;;;;;;;;;6226731;28;19925;-74
2024/01/05 16:10:00;;;;;;;;;;;;;;;;;;6228893;28;19917;-72
2024/01/05 16:13:02;;;;;;;;;;;;;;;;;;6228909;28;20118;-73
2024/01/05 16:16:10;;;;;;;;;;;;;;;;;;6229256;28;19917;-72
2024/01/05 16:19:12;;;;;;;;;;;;;;;;;;6228074;28;19955;-73
2024/01/05 16:22:13;;;;;;;;;;;;;;;;;;6230393;28;19925;-73
2024/01/05 16:25:17;;;;;;;;;;;;;;;;;;6227813;28;19927;-73
2024/01/05 16:28:18;;;;;;;;;;;;;;;;;;6230426;28;20115;-73
2024/01/05 16:31:20;;;;;;;;;;;;;;;;;;6254672;28;20104;-73
2024/01/05 16:34:21;;;;;;;;;;;;;;;;;;6253418;28;20170;-73
2024/01/05 16:37:23;;;;;;;;;;;;;;;;;;6248951;28;20096;-73
2024/01/05 16:40:26;;;;;;;;;;;;;;;;;;6228390;28;19925;-74
2024/01/05 16:43:28;;;;;;;;;;;;;;;;;;6229578;28;19929;-73
2024/01/05 16:46:30;;;;;;;;;;;;;;;;;;6228236;28;19925;-73
2024/01/05 16:49:31;;;;;;;;;;;;;;;;;;6228139;28;19991;-72
2024/01/05 16:52:33;;;;;;;;;;;;;;;;;;6228583;28;19925;-73
2024/01/05 16:55:37;;;;;;;;;;;;;;;;;;6264083;28;19924;-73
2024/01/05 16:58:39;;;;;;;;;;;;;;;;;;6232649;28;19932;-73
2024/01/05 17:01:40;;;;;;;;;;;;;;;;;;6234844;28;19972;-73
2024/01/05 17:04:42;;;;;;;;;;;;;;;;;;6232597;28;19972;-72
2024/01/05 17:07:43;;;;;;;;;;;;;;;;;;6234290;28;20115;-73
2024/01/05 17:10:46;;;;;;;;;;;;;;;;;;6232877;28;19932;-72
2024/01/05 17:13:48;;;;;;;;;;;;;;;;;;6233623;28;20143;-73
2024/01/05 17:16:50;;;;;;;;;;;;;;;;;;6231803;28;19972;-73
2024/01/05 17:19:52;;;;;;;;;;;;;;;;;;6231528;28;19999;-72
2024/01/05 17:22:53;;;;;;;;;;;;;;;;;;6234461;28;19925;-73
2024/01/05 17:25:57;;;;;;;;;;;;;;;;;;6261926;28;19954;-73
2024/01/05 17:29:00;;;;;;;;;;;;;;;;;;6231238;28;19996;-74
2024/01/05 17:32:01;;;;;;;;;;;;;;;;;;6230790;28;20005;-74
2024/01/05 17:35:03;;;;;;;;;;;;;;;;;;6233127;28;20242;-73
2024/01/05 17:38:05;;;;;;;;;;;;;;;;;;6233175;28;20393;-74
2024/01/05 17:41:08;;;;;;;;;;;;;;;;;;6232039;28;19925;-73
2024/01/05 17:44:09;;;;;;;;;;;;;;;;;;6264699;28;19948;-74
2024/01/05 17:47:12;;;;;;;;;;;;;;;;;;6231138;28;19929;-75
2024/01/05 17:50:15;;;;;;;;;;;;;;;;;;6233274;28;19925;-74
2024/01/05 17:53:17;;;;;;;;;;;;;;;;;;6231931;28;19924;-74
2024/01/05 17:56:24;;;;;;;;;;;;;;;;;;6233341;28;20119;-73
2024/01/05 17:59:26;;;;;;;;;;;;;;;;;;6232453;28;20231;-73
2024/01/05 18:02:28;;;;;;;;;;;;;;;;;;6229819;28;19925;-73
2024/01/05 18:05:29;;;;;;;;;;;;;;;;;;6230576;28;19917;-73
2024/01/05 18:08:31;;;;;;;;;;;;;;;;;;6230194;28;20219;-74
2024/01/05 18:11:34;;;;;;;;;;;;;;;;;;6231765;28;20281;-73
2024/01/05 18:14:36;;;;;;;;;;;;;;;;;;6231146;28;19933;-74
2024/01/05 18:17:38;;;;;;;;;;;;;;;;;;6231400;28;20093;-73
2024/01/05 18:20:39;;;;;;;;;;;;;;;;;;6231134;28;19940;-73
2024/01/05 18:23:43;;;;;;;;;;;;;;;;;;6231012;28;19925;-74
2024/01/05 18:26:46;;;;;;;;;;;;;;;;;;6262355;28;19925;-73
2024/01/05 18:29:47;;;;;;;;;;;;;;;;;;6230256;28;20020;-73
2024/01/05 18:32:49;;;;;;;;;;;;;;;;;;6231110;28;19930;-75
2024/01/05 18:35:50;;;;;;;;;;;;;;;;;;6244875;28;19932;-73
2024/01/05 18:38:52;;;;;;;;;;;;;;;;;;6254890;28;20245;-72
2024/01/05 18:41:55;;;;;;;;;;;;;;;;;;6240380;28;20242;-73
2024/01/05 18:44:57;;;;;;;;;;;;;;;;;;6230194;28;19932;-73
2024/01/05 18:47:58;;;;;;;;;;;;;;;;;;6231675;28;20127;-73
2024/01/05 18:51:00;;;;;;;;;;;;;;;;;;6231257;28;19925;-73
2024/01/05 18:54:03;;;;;;;;;;;;;;;;;;6229581;28;19940;-73
2024/01/05 18:57:06;;;;;;;;;;;;;;;;;;6229257;28;19926;-73
2024/01/05 19:00:08;;;;;;;;;;;;;;;;;;6229716;28;20567;-74
2024/01/05 19:03:10;;;;;;;;;;;;;;;;;;6228156;28;19926;-72
2024/01/05 19:06:14;;;;;;;;;;;;;;;;;;6230893;28;19929;-73
2024/01/05 19:09:17;;;;;;;;;;;;;;;;;;6259667;28;19917;-73
2024/01/05 19:12:20;;;;;;;;;;;;;;;;;;6257759;28;19925;-72
2024/01/05 19:15:21;;;;;;;;;;;;;;;;;;6217771;28;19925;-74
2024/01/05 19:18:23;;;;;;;;;;;;;;;;;;6225507;28;19993;-72
2024/01/05 19:21:24;;;;;;;;;;;;;;;;;;6229713;28;19932;-74
2024/01/05 19:24:27;;;;;;;;;;;;;;;;;;6224823;28;20419;-72
2024/01/05 19:27:30;;;;;;;;;;;;;;;;;;6227555;28;20231;-73
2024/01/05 19:35:10;;;;;;;8.15;6.05;;;;;;;;;;6326997;27;24821;-71
2024/01/05 19:38:12;;;;;;;6.97;5.60;;;;;;;;;;6265293;28;24484;-73
2024/01/05 19:41:16;;;;;;;7.35;5.65;;;;;;;;;;6261005;28;24848;-73
2024/01/05 19:44:19;;;;;;;7.32;5.20;;;;;;;;;;6263846;28;24836;-72
2024/01/05 19:47:22;;;;;;;5.90;4.88;;;;;;;;;;6262288;28;24500;-72
2024/01/05 19:50:29;;;;;;;7.07;4.93;;;;;;;;;;6262174;28;24530;-73
2024/01/05 19:53:31;;;;;;;6.45;4.97;;;;;;;;;;6264194;28;24411;-73
2024/01/05 19:56:33;;;;;;;6.47;4.53;;;;;;;;;;6259903;28;24474;-74
2024/01/05 19:59:35;;;;;;;6.80;4.80;;;;;;;;;;6263815;28;24620;-73
2024/01/05 20:02:37;;;;;;;6.40;4.70;;;;;;;;;;6262526;28;24490;-72
2024/01/05 20:05:40;;;;;;;7.35;4.95;;;;;;;;;;6262430;28;24436;-72
2024/01/05 20:08:47;;;;;;;5.90;5.03;;;;;;;;;;6264129;28;24424;-73
2024/01/05 20:11:52;;;;;;;7.22;5.20;;;;;;;;;;6262225;28;24428;-73
2024/01/05 20:15:09;;;;;;;6.18;4.70;;;;;;;;;;6261484;28;24706;-73
2024/01/05 20:18:11;;;;;;;7.93;5.13;;;;;;;;;;6259838;28;24487;-73
2024/01/05 20:21:17;;;;;;;6.57;4.95;;;;;;;;;;6265211;28;24431;-73
2024/01/05 20:24:21;;;;;;;7.18;5.30;;;;;;;;;;6259166;28;24444;-74
2024/01/05 20:27:25;;;;;;;6.57;5.30;;;;;;;;;;6261582;28;24434;-73